createdAt,value
2023-03-13T00:00:06.634Z,42.77
2023-03-13T00:00:28.518Z,42.92
2023-03-13T00:00:52.226Z,42.72
2023-03-13T00:01:19.701Z,42.65
2023-03-13T00:01:42.908Z,42.77
2023-03-13T00:02:05.743Z,42.94
2023-03-13T00:02:27.685Z,42.55
2023-03-13T00:02:50.570Z,42.91
2023-03-13T00:03:12.240Z,42.67
2023-03-13T00:03:33.874Z,42.82
2023-03-13T00:03:56.869Z,43.00
2023-03-13T00:04:18.747Z,43.07
2023-03-13T00:04:40.370Z,42.91
2023-03-13T00:05:02.084Z,42.95
2023-03-13T00:05:24.838Z,42.79
2023-03-13T00:05:47.166Z,42.92
2023-03-13T00:06:09.595Z,43.09
2023-03-13T00:06:33.258Z,42.96
2023-03-13T00:06:56.154Z,43.12
2023-03-13T00:07:17.754Z,43.04
2023-03-13T00:07:39.875Z,42.88
2023-03-13T00:08:01.457Z,42.95
2023-03-13T00:08:25.120Z,43.01
2023-03-13T00:08:47.733Z,42.93
2023-03-13T00:09:11.002Z,42.98
2023-03-13T00:09:32.924Z,42.87
2023-03-13T00:09:54.682Z,42.86
2023-03-13T00:10:17.797Z,42.89
2023-03-13T00:10:40.224Z,43.12
2023-03-13T00:11:03.116Z,43.11
2023-03-13T00:11:24.963Z,43.11
2023-03-13T00:11:48.597Z,43.03
2023-03-13T00:12:10.198Z,42.98
2023-03-13T00:12:32.338Z,42.74
2023-03-13T00:12:54.159Z,43.03
2023-03-13T00:13:17.744Z,43.21
2023-03-13T00:13:40.417Z,43.03
2023-03-13T00:14:03.800Z,43.11
2023-03-13T00:14:25.489Z,43.39
2023-03-13T00:14:47.085Z,43.17
2023-03-13T00:15:10.506Z,43.28
2023-03-13T00:15:32.207Z,43.16
2023-03-13T00:16:00.665Z,43.25
2023-03-13T00:16:22.593Z,43.24
2023-03-13T00:16:45.318Z,43.25
2023-03-13T00:17:07.318Z,43.08
2023-03-13T00:17:29.135Z,43.40
2023-03-13T00:17:50.774Z,43.46
2023-03-13T00:18:13.422Z,43.18
2023-03-13T00:18:35.362Z,43.31
2023-03-13T00:18:58.516Z,43.26
2023-03-13T00:19:21.094Z,43.47
2023-03-13T00:19:42.987Z,43.42
2023-03-13T00:20:07.266Z,43.65
2023-03-13T00:20:29.691Z,43.56
2023-03-13T00:20:59.206Z,43.69
2023-03-13T00:21:23.238Z,43.60
2023-03-13T00:21:44.827Z,43.47
2023-03-13T00:22:07.470Z,43.48
2023-03-13T00:22:29.341Z,43.65
2023-03-13T00:22:51.205Z,43.83
2023-03-13T00:23:13.275Z,43.61
2023-03-13T00:23:37.513Z,43.75
2023-03-13T00:24:00.216Z,43.40
2023-03-13T00:24:21.924Z,43.59
2023-03-13T00:24:43.522Z,43.42
2023-03-13T00:25:05.994Z,43.23
2023-03-13T00:25:29.922Z,43.37
2023-03-13T00:25:57.163Z,43.60
2023-03-13T00:26:20.600Z,43.39
2023-03-13T00:26:43.577Z,43.57
2023-03-13T00:27:06.913Z,43.56
2023-03-13T00:27:32.027Z,43.63
2023-03-13T00:27:53.694Z,43.66
2023-03-13T00:28:16.315Z,43.68
2023-03-13T00:28:40.584Z,43.31
2023-03-13T00:29:02.249Z,43.69
2023-03-13T00:29:23.929Z,43.52
2023-03-13T00:29:45.487Z,43.68
2023-03-13T00:30:11.917Z,43.37
2023-03-13T00:30:33.777Z,43.29
2023-03-13T00:31:03.577Z,43.37
2023-03-13T00:31:28.282Z,43.12
2023-03-13T00:31:50.343Z,43.24
2023-03-13T00:32:13.253Z,43.40
2023-03-13T00:32:40.234Z,43.33
2023-03-13T00:33:03.198Z,43.28
2023-03-13T00:33:25.276Z,43.33
2023-03-13T00:33:48.768Z,43.30
2023-03-13T00:34:11.024Z,43.26
2023-03-13T00:34:33.601Z,43.24
2023-03-13T00:34:55.255Z,43.13
2023-03-13T00:35:17.615Z,43.07
2023-03-13T00:35:44.187Z,43.61
2023-03-13T00:36:08.722Z,43.60
2023-03-13T00:36:34.080Z,43.50
2023-03-13T00:36:56.861Z,43.54
2023-03-13T00:37:18.508Z,43.28
2023-03-13T00:37:40.226Z,43.40
2023-03-13T00:38:03.008Z,43.36
2023-03-13T00:38:24.698Z,43.55
2023-03-13T00:38:46.940Z,43.42
2023-03-13T00:39:09.450Z,43.30
2023-03-13T00:39:32.103Z,43.33
2023-03-13T00:39:56.443Z,43.43
2023-03-13T00:40:18.893Z,43.63
2023-03-13T00:40:40.937Z,43.61
2023-03-13T00:41:04.409Z,43.52
2023-03-13T00:41:28.911Z,43.48
2023-03-13T00:41:50.840Z,43.47
2023-03-13T00:42:13.065Z,43.37
2023-03-13T00:42:34.918Z,43.10
2023-03-13T00:42:56.614Z,42.97
2023-03-13T00:43:19.142Z,43.21
2023-03-13T00:43:43.850Z,43.29
2023-03-13T00:44:06.242Z,43.26
2023-03-13T00:44:29.164Z,44.04
2023-03-13T00:44:50.770Z,43.91
2023-03-13T00:45:12.359Z,44.12
2023-03-13T00:45:34.841Z,44.01
2023-03-13T00:45:56.636Z,44.24
2023-03-13T00:46:21.878Z,43.97
2023-03-13T00:46:43.566Z,43.89
2023-03-13T00:47:07.041Z,44.21
2023-03-13T00:47:28.796Z,44.56
2023-03-13T00:47:50.529Z,44.52
2023-03-13T00:48:13.060Z,44.35
2023-03-13T00:48:34.761Z,44.18
2023-03-13T00:48:56.761Z,44.16
2023-03-13T00:49:19.390Z,44.28
2023-03-13T00:49:41.048Z,44.39
2023-03-13T00:50:03.023Z,44.46
2023-03-13T00:50:24.808Z,44.28
2023-03-13T00:50:46.490Z,44.32
2023-03-13T00:51:10.161Z,44.49
2023-03-13T00:51:32.367Z,44.68
2023-03-13T00:51:54.278Z,44.66
2023-03-13T00:52:16.146Z,45.05
2023-03-13T00:52:39.853Z,44.72
2023-03-13T00:53:02.999Z,44.89
2023-03-13T00:53:25.409Z,44.67
2023-03-13T00:53:47.637Z,44.76
2023-03-13T00:54:10.442Z,44.51
2023-03-13T00:54:32.561Z,44.26
2023-03-13T00:54:54.307Z,44.59
2023-03-13T00:55:16.349Z,44.45
2023-03-13T00:55:38.347Z,44.54
2023-03-13T00:56:03.341Z,44.39
2023-03-13T00:56:25.289Z,44.56
2023-03-13T00:56:47.038Z,44.30
2023-03-13T00:57:08.899Z,44.64
2023-03-13T00:57:32.606Z,44.61
2023-03-13T00:57:54.363Z,44.60
2023-03-13T00:58:16.037Z,44.81
2023-03-13T00:58:40.091Z,45.09
2023-03-13T00:59:04.094Z,44.68
2023-03-13T00:59:26.007Z,44.73
2023-03-13T00:59:47.855Z,44.72
2023-03-13T01:00:10.751Z,44.85
2023-03-13T01:00:33.615Z,44.56
2023-03-13T01:00:55.888Z,44.81
2023-03-13T01:01:19.881Z,45.02
2023-03-13T01:01:43.766Z,44.89
2023-03-13T01:02:06.538Z,45.00
2023-03-13T01:02:28.384Z,44.79
2023-03-13T01:02:50.286Z,45.02
2023-03-13T01:03:12.125Z,45.12
2023-03-13T01:03:33.913Z,44.98
2023-03-13T01:04:00.153Z,44.92
2023-03-13T01:04:21.918Z,44.83
2023-03-13T01:04:45.166Z,44.96
2023-03-13T01:05:07.910Z,45.04
2023-03-13T01:05:29.576Z,45.24
2023-03-13T01:05:58.340Z,44.99
2023-03-13T01:06:23.681Z,44.65
2023-03-13T01:06:45.429Z,44.93
2023-03-13T01:07:07.015Z,44.85
2023-03-13T01:07:30.543Z,44.63
2023-03-13T01:07:52.347Z,44.75
2023-03-13T01:08:15.006Z,44.64
2023-03-13T01:08:37.215Z,44.62
2023-03-13T01:09:00.803Z,44.65
2023-03-13T01:09:22.676Z,44.57
2023-03-13T01:09:44.687Z,44.75
2023-03-13T01:10:07.752Z,44.82
2023-03-13T01:10:29.439Z,45.07
2023-03-13T01:10:52.168Z,45.00
2023-03-13T01:11:17.806Z,45.14
2023-03-13T01:11:41.874Z,44.71
2023-03-13T01:12:48.540Z,44.88
2023-03-13T01:13:10.687Z,44.95
2023-03-13T01:13:33.109Z,44.86
2023-03-13T01:13:55.883Z,44.92
2023-03-13T01:14:21.419Z,45.04
2023-03-13T01:14:43.674Z,45.22
2023-03-13T01:15:06.185Z,45.05
2023-03-13T01:15:27.819Z,45.14
2023-03-13T01:15:49.466Z,44.95
2023-03-13T01:16:13.954Z,45.11
2023-03-13T01:16:37.544Z,45.05
2023-03-13T01:16:59.270Z,45.06
2023-03-13T01:17:21.157Z,44.86
2023-03-13T01:17:43.918Z,45.13
2023-03-13T01:18:06.828Z,45.12
2023-03-13T01:18:28.684Z,45.05
2023-03-13T01:18:53.418Z,44.98
2023-03-13T01:19:17.531Z,44.78
2023-03-13T01:19:40.371Z,44.82
2023-03-13T01:20:01.963Z,44.82
2023-03-13T01:20:24.110Z,44.48
2023-03-13T01:20:46.794Z,44.99
2023-03-13T01:21:09.570Z,44.91
2023-03-13T01:21:31.646Z,44.84
2023-03-13T01:21:54.631Z,44.53
2023-03-13T01:22:16.242Z,44.66
2023-03-13T01:22:37.990Z,45.05
2023-03-13T01:22:59.725Z,44.73
2023-03-13T01:23:21.372Z,44.78
2023-03-13T01:23:44.177Z,44.65
2023-03-13T01:24:06.420Z,44.72
2023-03-13T01:24:28.076Z,44.56
2023-03-13T01:24:52.409Z,44.84
2023-03-13T01:25:17.326Z,44.63
2023-03-13T01:25:39.992Z,44.59
2023-03-13T01:26:04.790Z,44.65
2023-03-13T01:26:29.572Z,44.55
2023-03-13T01:26:52.376Z,44.58
2023-03-13T01:27:15.017Z,44.38
2023-03-13T01:27:37.519Z,44.44
2023-03-13T01:27:59.101Z,44.43
2023-03-13T01:28:20.777Z,44.46
2023-03-13T01:28:44.051Z,44.57
2023-03-13T01:29:05.917Z,44.56
2023-03-13T01:29:28.909Z,44.31
2023-03-13T01:29:50.498Z,44.51
2023-03-13T01:30:13.692Z,44.35
2023-03-13T01:30:35.354Z,44.34
2023-03-13T01:30:57.137Z,44.37
2023-03-13T01:31:20.966Z,44.36
2023-03-13T01:31:43.637Z,44.19
2023-03-13T01:32:06.246Z,44.47
2023-03-13T01:32:29.086Z,44.40
2023-03-13T01:32:50.788Z,44.52
2023-03-13T01:33:14.509Z,44.47
2023-03-13T01:33:37.841Z,44.35
2023-03-13T01:34:02.035Z,44.38
2023-03-13T01:34:24.089Z,44.45
2023-03-13T01:34:47.668Z,44.34
2023-03-13T01:35:09.370Z,44.35
2023-03-13T01:35:32.209Z,44.33
2023-03-13T01:36:02.487Z,44.71
2023-03-13T01:36:26.655Z,44.63
2023-03-13T01:36:50.629Z,44.74
2023-03-13T01:37:12.334Z,44.85
2023-03-13T01:37:33.989Z,44.70
2023-03-13T01:37:55.634Z,44.99
2023-03-13T01:38:18.622Z,45.00
2023-03-13T01:38:40.741Z,45.00
2023-03-13T01:39:02.348Z,45.11
2023-03-13T01:39:24.113Z,45.32
2023-03-13T01:39:46.851Z,45.34
2023-03-13T01:40:10.013Z,45.28
2023-03-13T01:40:32.002Z,45.21
2023-03-13T01:40:53.796Z,45.52
2023-03-13T01:41:16.736Z,45.18
2023-03-13T01:41:38.924Z,45.32
2023-03-13T01:42:00.710Z,45.52
2023-03-13T01:42:23.510Z,45.44
2023-03-13T01:42:52.705Z,45.32
2023-03-13T01:43:27.632Z,45.26
2023-03-13T01:43:52.837Z,45.10
2023-03-13T01:44:22.689Z,45.20
2023-03-13T01:44:53.161Z,45.13
2023-03-13T01:45:49.577Z,44.90
2023-03-13T01:46:14.199Z,45.02
2023-03-13T01:46:44.833Z,45.04
2023-03-13T01:47:27.169Z,44.95
2023-03-13T01:48:02.038Z,45.30
2023-03-13T01:48:46.091Z,45.40
2023-03-13T01:49:12.780Z,45.37
2023-03-13T01:49:55.718Z,45.42
2023-03-13T01:50:47.390Z,45.82
2023-03-13T01:51:26.951Z,45.90
2023-03-13T01:51:52.548Z,45.59
2023-03-13T01:52:18.461Z,45.79
2023-03-13T01:52:45.378Z,45.70
2023-03-13T01:53:13.115Z,45.79
2023-03-13T01:53:41.091Z,46.00
2023-03-13T01:54:06.433Z,45.90
2023-03-13T01:54:32.818Z,46.01
2023-03-13T01:54:59.812Z,45.96
2023-03-13T01:55:22.658Z,45.95
2023-03-13T01:55:47.727Z,46.00
2023-03-13T01:56:16.545Z,46.08
2023-03-13T01:56:45.600Z,45.84
2023-03-13T01:57:12.483Z,45.97
2023-03-13T01:57:38.569Z,45.81
2023-03-13T01:58:02.832Z,45.93
2023-03-13T01:58:28.224Z,45.83
2023-03-13T01:58:52.472Z,46.15
2023-03-13T01:59:17.590Z,46.52
2023-03-13T01:59:43.285Z,46.45
2023-03-13T02:00:12.472Z,46.67
2023-03-13T02:00:38.449Z,46.42
2023-03-13T02:01:05.435Z,46.96
2023-03-13T02:01:28.788Z,47.32
2023-03-13T02:01:53.154Z,47.14
2023-03-13T02:02:17.958Z,46.97
2023-03-13T02:02:42.872Z,46.67
2023-03-13T02:03:09.046Z,46.88
2023-03-13T02:03:31.316Z,46.67
2023-03-13T02:03:57.805Z,46.69
2023-03-13T02:04:22.157Z,46.64
2023-03-13T02:04:48.016Z,46.80
2023-03-13T02:05:09.975Z,46.59
2023-03-13T02:05:32.829Z,46.64
2023-03-13T02:05:56.351Z,46.63
2023-03-13T02:06:18.687Z,46.70
2023-03-13T02:06:44.104Z,46.83
2023-03-13T02:07:10.828Z,47.54
2023-03-13T02:07:40.117Z,47.26
2023-03-13T02:08:05.162Z,47.50
2023-03-13T02:08:32.615Z,47.21
2023-03-13T02:09:00.462Z,47.42
2023-03-13T02:09:25.961Z,47.09
2023-03-13T02:09:52.068Z,47.12
2023-03-13T02:10:17.879Z,47.09
2023-03-13T02:10:44.785Z,47.01
2023-03-13T02:11:16.139Z,47.21
2023-03-13T02:11:47.418Z,47.40
2023-03-13T02:12:13.894Z,47.27
2023-03-13T02:12:38.682Z,47.22
2023-03-13T02:13:02.973Z,47.24
2023-03-13T02:13:25.807Z,47.30
2023-03-13T02:13:48.704Z,47.44
2023-03-13T02:14:13.312Z,47.40
2023-03-13T02:14:38.429Z,47.02
2023-03-13T02:15:03.092Z,47.04
2023-03-13T02:15:28.517Z,47.31
2023-03-13T02:15:51.374Z,47.26
2023-03-13T02:16:13.373Z,47.12
2023-03-13T02:16:36.573Z,47.20
2023-03-13T02:17:01.867Z,47.62
2023-03-13T02:17:24.888Z,47.19
2023-03-13T02:17:48.499Z,47.55
2023-03-13T02:18:10.869Z,47.55
2023-03-13T02:18:34.856Z,47.47
2023-03-13T02:18:56.541Z,47.45
2023-03-13T02:19:24.565Z,47.23
2023-03-13T02:19:50.021Z,47.20
2023-03-13T02:20:15.002Z,47.19
2023-03-13T02:20:39.218Z,47.19
2023-03-13T02:21:09.988Z,46.84
2023-03-13T02:21:41.283Z,46.70
2023-03-13T02:22:12.507Z,46.83
2023-03-13T02:22:43.765Z,46.82
2023-03-13T02:23:13.690Z,46.50
2023-03-13T02:23:42.752Z,46.39
2023-03-13T02:24:15.093Z,46.43
2023-03-13T02:24:45.670Z,46.36
2023-03-13T02:25:17.029Z,46.38
2023-03-13T02:25:43.277Z,46.70
2023-03-13T02:26:07.632Z,46.94
2023-03-13T02:26:29.643Z,47.08
2023-03-13T02:26:52.595Z,47.18
2023-03-13T02:27:14.790Z,47.53
2023-03-13T02:27:39.682Z,47.47
2023-03-13T02:28:05.530Z,47.49
2023-03-13T02:28:33.719Z,47.55
2023-03-13T02:28:56.608Z,47.63
2023-03-13T02:29:20.236Z,47.51
2023-03-13T02:29:42.523Z,47.43
2023-03-13T02:30:06.482Z,47.94
2023-03-13T02:30:28.754Z,47.81
2023-03-13T02:30:54.171Z,47.95
2023-03-13T02:31:17.162Z,48.11
2023-03-13T02:31:39.355Z,47.99
2023-03-13T02:32:03.287Z,48.32
2023-03-13T02:32:28.084Z,48.55
2023-03-13T02:32:53.127Z,48.54
2023-03-13T02:33:16.181Z,48.43
2023-03-13T02:33:42.007Z,48.88
2023-03-13T02:34:06.337Z,48.77
2023-03-13T02:34:31.919Z,48.83
2023-03-13T02:34:58.317Z,49.06
2023-03-13T02:35:23.198Z,49.02
2023-03-13T02:35:46.399Z,49.24
2023-03-13T02:36:12.581Z,49.27
2023-03-13T02:36:35.700Z,49.15
2023-03-13T02:37:00.412Z,48.99
2023-03-13T02:37:26.431Z,49.38
2023-03-13T02:37:53.011Z,49.85
2023-03-13T02:38:20.997Z,50.46
2023-03-13T02:38:49.322Z,50.61
2023-03-13T02:39:14.353Z,50.53
2023-03-13T02:39:39.672Z,50.19
2023-03-13T02:40:05.933Z,50.18
2023-03-13T02:40:31.189Z,50.21
2023-03-13T02:40:56.434Z,50.31
2023-03-13T02:41:24.770Z,50.71
2023-03-13T02:41:48.975Z,50.39
2023-03-13T02:42:11.695Z,50.31
2023-03-13T02:42:34.510Z,50.37
2023-03-13T02:42:59.397Z,50.40
2023-03-13T02:43:30.600Z,50.58
2023-03-13T02:43:52.697Z,50.58
2023-03-13T02:44:15.600Z,50.79
2023-03-13T02:44:40.168Z,50.48
2023-03-13T02:45:02.671Z,50.79
2023-03-13T02:45:24.296Z,51.06
2023-03-13T02:46:04.759Z,50.81
2023-03-13T02:46:28.991Z,50.68
2023-03-13T02:46:52.725Z,50.45
2023-03-13T02:47:20.521Z,50.47
2023-03-13T02:47:42.382Z,50.50
2023-03-13T02:48:06.264Z,50.96
2023-03-13T02:48:33.263Z,50.45
2023-03-13T02:48:56.592Z,50.81
2023-03-13T02:49:22.880Z,50.80
2023-03-13T02:49:45.952Z,51.04
2023-03-13T02:50:08.010Z,50.99
2023-03-13T02:50:30.578Z,51.09
2023-03-13T02:50:52.355Z,51.32
2023-03-13T02:51:21.510Z,50.94
2023-03-13T02:51:46.412Z,50.75
2023-03-13T02:52:14.533Z,50.85
2023-03-13T02:52:42.735Z,50.68
2023-03-13T02:53:08.601Z,50.33
2023-03-13T02:53:30.896Z,50.66
2023-03-13T02:53:55.678Z,50.69
2023-03-13T02:54:21.122Z,50.42
2023-03-13T02:54:46.433Z,50.30
2023-03-13T02:55:15.498Z,50.28
2023-03-13T02:55:39.750Z,50.16
2023-03-13T02:56:05.294Z,50.40
2023-03-13T02:56:30.157Z,50.51
2023-03-13T02:56:56.024Z,50.30
2023-03-13T02:57:18.573Z,50.54
2023-03-13T02:57:40.322Z,50.71
2023-03-13T02:58:02.266Z,50.60
2023-03-13T02:58:31.759Z,50.45
2023-03-13T02:58:55.674Z,50.52
2023-03-13T02:59:19.950Z,50.61
2023-03-13T02:59:43.755Z,50.55
2023-03-13T03:00:07.788Z,50.24
2023-03-13T03:00:29.669Z,50.45
2023-03-13T03:00:53.852Z,50.59
2023-03-13T03:01:17.103Z,50.48
2023-03-13T03:01:40.813Z,50.34
2023-03-13T03:02:03.251Z,50.33
2023-03-13T03:02:24.972Z,50.63
2023-03-13T03:02:49.217Z,50.44
2023-03-13T03:03:10.802Z,50.75
2023-03-13T03:03:32.520Z,50.78
2023-03-13T03:03:54.418Z,51.15
2023-03-13T03:04:17.086Z,51.02
2023-03-13T03:04:38.807Z,50.79
2023-03-13T03:05:00.404Z,50.95
2023-03-13T03:05:22.824Z,50.84
2023-03-13T03:05:46.831Z,51.06
2023-03-13T03:06:08.620Z,51.21
2023-03-13T03:06:30.761Z,51.21
2023-03-13T03:06:54.115Z,51.06
2023-03-13T03:07:17.929Z,51.14
2023-03-13T03:07:41.178Z,50.79
2023-03-13T03:08:02.888Z,51.00
2023-03-13T03:08:27.844Z,50.82
2023-03-13T03:08:51.010Z,51.05
2023-03-13T03:09:16.148Z,51.03
2023-03-13T03:09:38.846Z,51.07
2023-03-13T03:10:06.449Z,51.32
2023-03-13T03:10:32.576Z,50.92
2023-03-13T03:10:54.250Z,50.93
2023-03-13T03:11:19.822Z,50.92
2023-03-13T03:11:46.475Z,51.08
2023-03-13T03:12:10.194Z,50.67
2023-03-13T03:12:31.965Z,51.11
2023-03-13T03:12:55.284Z,50.97
2023-03-13T03:13:16.993Z,50.92
2023-03-13T03:13:39.142Z,50.91
2023-03-13T03:14:01.693Z,50.96
2023-03-13T03:14:27.842Z,50.68
2023-03-13T03:14:49.639Z,50.76
2023-03-13T03:15:13.561Z,50.72
2023-03-13T03:15:39.214Z,50.60
2023-03-13T03:16:08.334Z,50.68
2023-03-13T03:16:30.166Z,50.38
2023-03-13T03:16:52.141Z,50.37
2023-03-13T03:17:13.774Z,50.16
2023-03-13T03:17:37.819Z,50.14
2023-03-13T03:17:59.426Z,49.99
2023-03-13T03:18:21.199Z,49.90
2023-03-13T03:18:43.069Z,49.97
2023-03-13T03:19:06.527Z,50.00
2023-03-13T03:19:28.303Z,50.34
2023-03-13T03:19:53.428Z,50.28
2023-03-13T03:20:15.824Z,50.18
2023-03-13T03:20:39.445Z,50.16
2023-03-13T03:21:01.254Z,50.31
2023-03-13T03:21:23.906Z,50.26
2023-03-13T03:21:46.738Z,50.26
2023-03-13T03:22:10.167Z,50.28
2023-03-13T03:22:31.772Z,50.45
2023-03-13T03:22:56.924Z,50.07
2023-03-13T03:23:18.639Z,50.30
2023-03-13T03:23:41.259Z,50.11
2023-03-13T03:24:03.763Z,49.95
2023-03-13T03:24:25.627Z,49.93
2023-03-13T03:24:47.378Z,49.91
2023-03-13T03:25:10.651Z,49.85
2023-03-13T03:25:34.523Z,50.05
2023-03-13T03:25:56.245Z,50.44
2023-03-13T03:26:19.349Z,50.27
2023-03-13T03:26:42.547Z,50.32
2023-03-13T03:27:11.042Z,50.06
2023-03-13T03:27:38.442Z,50.09
2023-03-13T03:28:03.226Z,49.96
2023-03-13T03:28:25.941Z,49.87
2023-03-13T03:28:48.739Z,49.67
2023-03-13T03:29:11.072Z,49.93
2023-03-13T03:29:33.395Z,49.71
2023-03-13T03:29:56.056Z,49.90
2023-03-13T03:30:18.256Z,49.74
2023-03-13T03:30:39.912Z,49.78
2023-03-13T03:31:04.539Z,50.22
2023-03-13T03:31:29.786Z,50.36
2023-03-13T03:31:51.737Z,50.57
2023-03-13T03:32:14.406Z,50.27
2023-03-13T03:32:37.989Z,50.25
2023-03-13T03:33:04.432Z,50.50
2023-03-13T03:33:31.904Z,50.49
2023-03-13T03:33:55.569Z,50.45
2023-03-13T03:34:17.845Z,50.48
2023-03-13T03:34:42.644Z,50.42
2023-03-13T03:35:04.993Z,50.30
2023-03-13T03:35:26.662Z,50.10
2023-03-13T03:35:48.761Z,50.04
2023-03-13T03:36:14.580Z,50.15
2023-03-13T03:36:36.239Z,50.66
2023-03-13T03:36:59.546Z,50.71
2023-03-13T03:37:23.186Z,50.56
2023-03-13T03:37:45.108Z,50.42
2023-03-13T03:38:08.089Z,50.30
2023-03-13T03:38:30.392Z,50.47
2023-03-13T03:38:52.544Z,50.24
2023-03-13T03:39:18.730Z,50.13
2023-03-13T03:39:41.454Z,50.37
2023-03-13T03:40:05.574Z,50.22
2023-03-13T03:40:28.684Z,49.92
2023-03-13T03:40:51.155Z,50.00
2023-03-13T03:41:14.903Z,50.37
2023-03-13T03:41:37.934Z,50.21
2023-03-13T03:42:00.507Z,50.18
2023-03-13T03:42:22.221Z,50.26
2023-03-13T03:42:44.774Z,50.38
2023-03-13T03:43:06.434Z,50.32
2023-03-13T03:43:28.268Z,50.46
2023-03-13T03:43:50.681Z,50.50
2023-03-13T03:44:16.846Z,50.53
2023-03-13T03:44:48.770Z,50.56
2023-03-13T03:45:11.285Z,50.24
2023-03-13T03:45:33.051Z,50.15
2023-03-13T03:45:54.811Z,50.33
2023-03-13T03:46:19.790Z,50.26
2023-03-13T03:46:41.901Z,50.15
2023-03-13T03:47:03.705Z,50.29
2023-03-13T03:47:29.714Z,50.13
2023-03-13T03:47:51.473Z,50.42
2023-03-13T03:48:13.189Z,50.51
2023-03-13T03:48:36.318Z,50.77
2023-03-13T03:49:00.001Z,50.99
2023-03-13T03:49:21.863Z,50.70
2023-03-13T03:49:44.028Z,50.77
2023-03-13T03:50:08.177Z,50.45
2023-03-13T03:50:39.683Z,50.05
2023-03-13T03:51:01.407Z,50.61
2023-03-13T03:51:24.202Z,50.88
2023-03-13T03:51:45.874Z,50.99
2023-03-13T03:52:09.646Z,50.79
2023-03-13T03:52:34.510Z,50.57
2023-03-13T03:52:56.370Z,50.64
2023-03-13T03:53:20.179Z,50.67
2023-03-13T03:53:42.885Z,50.77
2023-03-13T03:54:04.852Z,50.98
2023-03-13T03:54:27.765Z,50.95
2023-03-13T03:54:50.225Z,50.57
2023-03-13T03:55:12.652Z,50.67
2023-03-13T03:55:35.417Z,50.33
2023-03-13T03:55:57.609Z,50.40
2023-03-13T03:56:19.378Z,50.17
2023-03-13T03:56:47.102Z,50.15
2023-03-13T03:57:09.714Z,49.95
2023-03-13T03:57:33.336Z,49.74
2023-03-13T03:57:55.578Z,49.71
2023-03-13T03:58:36.511Z,49.78
2023-03-13T03:59:16.346Z,49.67
2023-03-13T03:59:58.402Z,49.77
2023-03-13T04:00:21.988Z,49.77
2023-03-13T04:00:48.456Z,49.68
2023-03-13T04:01:10.117Z,49.75
2023-03-13T04:01:32.029Z,49.70
2023-03-13T04:01:53.896Z,49.59
2023-03-13T04:02:19.541Z,49.80
2023-03-13T04:02:43.582Z,50.00
2023-03-13T04:03:06.910Z,49.76
2023-03-13T04:03:30.303Z,49.53
2023-03-13T04:03:52.009Z,49.83
2023-03-13T04:04:13.920Z,49.65
2023-03-13T04:04:38.818Z,49.34
2023-03-13T04:05:07.858Z,49.58
2023-03-13T04:05:31.043Z,49.49
2023-03-13T04:05:53.483Z,49.57
2023-03-13T04:06:17.826Z,49.78
2023-03-13T04:06:41.798Z,49.45
2023-03-13T04:07:04.415Z,49.58
2023-03-13T04:07:27.182Z,49.50
2023-03-13T04:07:50.089Z,49.56
2023-03-13T04:08:11.984Z,49.89
2023-03-13T04:08:33.874Z,50.02
2023-03-13T04:08:56.043Z,50.09
2023-03-13T04:09:21.555Z,50.00
2023-03-13T04:09:43.564Z,49.86
2023-03-13T04:10:12.353Z,49.70
2023-03-13T04:10:39.835Z,49.68
2023-03-13T04:11:02.784Z,50.16
2023-03-13T04:11:28.338Z,50.27
2023-03-13T04:11:52.481Z,50.30
2023-03-13T04:12:15.229Z,50.11
2023-03-13T04:12:40.317Z,50.20
2023-03-13T04:13:02.680Z,49.97
2023-03-13T04:13:24.561Z,49.91
2023-03-13T04:13:47.214Z,49.80
2023-03-13T04:14:09.104Z,49.80
2023-03-13T04:14:30.774Z,49.88
2023-03-13T04:14:54.394Z,49.87
2023-03-13T04:15:16.483Z,49.82
2023-03-13T04:15:38.597Z,49.85
2023-03-13T04:16:00.579Z,49.63
2023-03-13T04:16:23.710Z,49.57
2023-03-13T04:16:46.917Z,49.36
2023-03-13T04:17:11.273Z,49.52
2023-03-13T04:17:33.859Z,49.39
2023-03-13T04:17:57.234Z,49.52
2023-03-13T04:18:19.293Z,49.33
2023-03-13T04:18:41.172Z,49.45
2023-03-13T04:19:02.844Z,49.42
2023-03-13T04:19:26.239Z,49.51
2023-03-13T04:19:48.307Z,49.50
2023-03-13T04:20:13.534Z,49.15
2023-03-13T04:20:37.768Z,49.35
2023-03-13T04:21:04.019Z,49.52
2023-03-13T04:21:32.515Z,49.31
2023-03-13T04:21:58.637Z,49.15
2023-03-13T04:22:21.741Z,49.42
2023-03-13T04:22:48.535Z,49.22
2023-03-13T04:23:11.303Z,49.36
2023-03-13T04:23:33.305Z,49.72
2023-03-13T04:23:56.157Z,49.61
2023-03-13T04:24:19.541Z,49.79
2023-03-13T04:24:41.425Z,49.47
2023-03-13T04:25:03.708Z,49.42
2023-03-13T04:25:28.217Z,49.32
2023-03-13T04:25:53.737Z,49.47
2023-03-13T04:26:16.349Z,49.46
2023-03-13T04:26:38.769Z,49.23
2023-03-13T04:27:09.508Z,49.23
2023-03-13T04:27:33.574Z,49.05
2023-03-13T04:27:56.148Z,49.12
2023-03-13T04:28:21.378Z,48.98
2023-03-13T04:28:43.141Z,48.88
2023-03-13T04:29:08.199Z,48.85
2023-03-13T04:29:51.916Z,48.88
2023-03-13T04:30:26.721Z,48.89
2023-03-13T04:31:15.407Z,48.92
2023-03-13T04:32:02.280Z,48.94
2023-03-13T04:32:38.837Z,49.09
2023-03-13T04:33:20.763Z,48.92
2023-03-13T04:33:57.858Z,48.80
2023-03-13T04:34:36.441Z,48.87
2023-03-13T04:35:10.457Z,49.20
2023-03-13T04:35:48.811Z,49.17
2023-03-13T04:36:27.294Z,49.11
2023-03-13T04:37:09.254Z,49.11
2023-03-13T04:37:54.830Z,49.15
2023-03-13T04:38:36.398Z,49.01
2023-03-13T04:39:18.180Z,49.20
2023-03-13T04:40:01.118Z,49.09
2023-03-13T04:40:37.467Z,49.16
2023-03-13T04:41:22.282Z,49.03
2023-03-13T04:42:21.734Z,48.95
2023-03-13T04:43:03.720Z,49.09
2023-03-13T04:43:41.575Z,49.06
2023-03-13T04:44:23.900Z,48.77
2023-03-13T04:45:10.829Z,48.75
2023-03-13T04:45:55.484Z,49.13
2023-03-13T04:46:43.074Z,49.32
2023-03-13T04:47:16.261Z,49.33
2023-03-13T04:48:02.745Z,49.22
2023-03-13T04:48:56.677Z,49.40
2023-03-13T04:49:42.245Z,49.58
2023-03-13T04:50:21.623Z,49.45
2023-03-13T04:50:57.552Z,49.29
2023-03-13T04:51:31.805Z,49.66
2023-03-13T04:52:13.451Z,49.79
2023-03-13T04:52:56.339Z,49.89
2023-03-13T04:53:26.832Z,49.71
2023-03-13T04:54:07.846Z,49.81
2023-03-13T04:54:38.277Z,49.68
2023-03-13T04:55:06.058Z,49.71
2023-03-13T04:55:43.592Z,49.53
2023-03-13T04:56:41.655Z,49.44
2023-03-13T04:57:20.721Z,49.47
2023-03-13T04:57:51.557Z,49.38
2023-03-13T04:58:31.333Z,49.15
2023-03-13T04:59:22.246Z,49.18
2023-03-13T04:59:59.505Z,48.96
2023-03-13T05:00:35.363Z,49.05
2023-03-13T05:01:18.356Z,49.16
2023-03-13T05:01:58.466Z,49.11
2023-03-13T05:02:34.242Z,49.15
2023-03-13T05:03:06.848Z,49.15
2023-03-13T05:03:49.269Z,49.10
2023-03-13T05:04:35.088Z,49.10
2023-03-13T05:05:19.335Z,49.15
2023-03-13T05:05:53.820Z,49.10
2023-03-13T05:06:50.139Z,48.96
2023-03-13T05:07:26.783Z,48.95
2023-03-13T05:08:02.199Z,48.83
2023-03-13T05:08:42.696Z,49.02
2023-03-13T05:09:11.448Z,49.09
2023-03-13T05:09:46.572Z,48.99
2023-03-13T05:10:28.534Z,49.26
2023-03-13T05:11:30.083Z,48.88
2023-03-13T05:12:20.963Z,48.92
2023-03-13T05:12:52.291Z,49.03
2023-03-13T05:13:25.157Z,49.17
2023-03-13T05:14:13.029Z,49.09
2023-03-13T05:14:54.670Z,49.02
2023-03-13T05:15:36.675Z,49.15
2023-03-13T05:16:18.734Z,49.00
2023-03-13T05:17:00.013Z,49.30
2023-03-13T05:17:41.675Z,49.51
2023-03-13T05:18:05.921Z,49.42
2023-03-13T05:18:54.727Z,49.27
2023-03-13T05:19:42.538Z,49.32
2023-03-13T05:20:17.749Z,49.21
2023-03-13T05:21:02.277Z,49.06
2023-03-13T05:21:51.073Z,49.12
2023-03-13T05:22:31.374Z,49.01
2023-03-13T05:23:23.248Z,49.03
2023-03-13T05:24:20.370Z,48.99
2023-03-13T05:25:00.524Z,48.87
2023-03-13T05:25:47.485Z,48.83
2023-03-13T05:26:39.185Z,49.08
2023-03-13T05:27:19.265Z,49.37
2023-03-13T05:27:50.998Z,49.28
2023-03-13T05:28:38.068Z,49.30
2023-03-13T05:29:14.594Z,49.32
2023-03-13T05:29:55.270Z,49.33
2023-03-13T05:30:38.202Z,49.37
2023-03-13T05:31:09.079Z,49.47
2023-03-13T05:31:57.171Z,49.40
2023-03-13T05:32:46.309Z,49.53
2023-03-13T05:33:15.628Z,49.41
2023-03-13T05:34:01.199Z,49.21
2023-03-13T05:34:44.216Z,49.20
2023-03-13T05:35:26.431Z,49.26
2023-03-13T05:36:08.952Z,49.15
2023-03-13T05:36:33.374Z,49.26
2023-03-13T05:37:15.392Z,49.23
2023-03-13T05:37:41.608Z,49.19
2023-03-13T05:38:22.858Z,48.94
2023-03-13T05:39:06.355Z,49.18